Time;durP1;ratioP1;P1;durP2;ratioP2;P2;SDS_P1;SDS_P2;PMS_P1;PMS_P2;Temp;Humidity;BMP_temperature;BMP_pressure;BME280_temperature;BME280_humidity;BME280_pressure;Samples;Min_cycle;Max_cycle;Signal;HPM_P1;HPM_P2
2024/02/04 00:01:33;;;;;;;6.80;4.80;;;;;;;7.06;84.66;98779.64;225982;1278;22613;-78
2024/02/04 00:06:38;;;;;;;7.10;5.00;;;;;;;7.00;84.84;98776.05;225847;1278;22548;-78
2024/02/04 00:11:40;;;;;;;6.40;4.50;;;;;;;6.97;85.20;98772.34;225975;1276;22551;-78
2024/02/04 00:16:42;;;;;;;7.90;4.80;;;;;;;6.93;84.84;98762.15;225972;1278;22566;-78
2024/02/04 00:21:44;;;;;;;7.20;5.00;;;;;;;6.90;85.43;98762.86;225969;1278;22643;-77
2024/02/04 00:26:46;;;;;;;5.80;4.50;;;;;;;6.87;85.27;98760.86;225967;1278;22636;-78
2024/02/04 00:31:48;;;;;;;6.40;4.60;;;;;;;6.85;85.33;98766.17;225996;1276;22556;-78
2024/02/04 00:36:50;;;;;;;6.30;3.90;;;;;;;6.84;85.74;98767.71;225976;1276;22902;-79
2024/02/04 00:41:52;;;;;;;4.00;3.40;;;;;;;6.85;85.72;98761.15;225993;1276;25347;-78
2024/02/04 00:46:54;;;;;;;5.80;3.50;;;;;;;6.87;85.80;98755.99;226029;1277;23029;-79
2024/02/04 00:51:56;;;;;;;4.00;3.10;;;;;;;6.89;85.29;98752.04;225979;1278;22589;-78
2024/02/04 00:56:59;;;;;;;4.40;3.40;;;;;;;6.91;85.10;98746.61;225726;1278;22581;-78
2024/02/04 01:02:03;;;;;;;4.30;3.10;;;;;;;6.92;85.63;98751.24;226637;1278;22536;-78
2024/02/04 01:07:05;;;;;;;4.40;3.00;;;;;;;6.96;85.43;98757.39;225948;1277;22543;-78
2024/02/04 01:12:08;;;;;;;4.10;2.60;;;;;;;7.05;85.19;98749.78;225963;1278;22587;-78
2024/02/04 01:17:10;;;;;;;3.10;2.40;;;;;;;7.14;85.14;98748.49;226027;1275;22602;-78
2024/02/04 01:22:11;;;;;;;3.60;2.60;;;;;;;7.22;84.66;98749.86;225950;1276;22547;-78
2024/02/04 01:27:13;;;;;;;4.00;2.70;;;;;;;7.27;84.70;98747.18;225982;1273;22548;-78
2024/02/04 01:32:16;;;;;;;3.50;2.20;;;;;;;7.32;84.43;98740.17;225990;1276;22541;-78
2024/02/04 01:37:18;;;;;;;3.20;2.30;;;;;;;7.34;84.53;98748.48;225970;1276;22539;-78
2024/02/04 01:42:20;;;;;;;4.50;2.20;;;;;;;7.35;84.80;98747.17;226013;1273;24280;-78
2024/02/04 01:47:23;;;;;;;4.10;2.10;;;;;;;7.35;84.24;98745.85;225950;1274;22575;-79
2024/02/04 01:52:25;;;;;;;2.20;2.00;;;;;;;7.35;84.68;98744.21;225958;1278;22550;-79
2024/02/04 01:57:27;;;;;;;2.20;1.70;;;;;;;7.37;84.27;98743.06;226201;1276;22543;-78
2024/02/04 02:02:33;;;;;;;1.90;1.70;;;;;;;7.41;84.13;98739.50;226017;1270;22540;-78
2024/02/04 02:07:35;;;;;;;1.50;1.40;;;;;;;7.45;84.29;98746.44;225797;1278;22552;-78
2024/02/04 02:12:50;;;;;;;2.40;1.60;;;;;;;7.52;84.44;98750.11;225891;1276;22575;-78
2024/02/04 02:18:08;;;;;;;1.50;1.40;;;;;;;7.56;84.59;98768.90;225915;1277;22543;-78
2024/02/04 02:23:17;;;;;;;2.40;1.50;;;;;;;7.53;84.69;98789.39;226017;1275;22559;-80
2024/02/04 02:28:20;;;;;;;1.30;1.10;;;;;;;7.43;85.27;98806.17;225926;1273;22688;-80
2024/02/04 02:33:22;;;;;;;1.40;1.30;;;;;;;7.18;85.57;98793.94;225867;1276;22549;-79
2024/02/04 02:38:33;;;;;;;2.40;1.60;;;;;;;6.92;86.09;98802.32;225960;1274;22543;-78
2024/02/04 02:43:40;;;;;;;2.10;1.30;;;;;;;6.75;87.34;98819.91;225902;1275;24296;-79
2024/02/04 02:48:43;;;;;;;1.60;1.50;;;;;;;6.65;87.44;98826.07;225988;1276;22814;-79
2024/02/04 02:53:45;;;;;;;1.30;1.20;;;;;;;6.54;87.66;98815.48;226167;1270;22555;-78
2024/02/04 02:58:47;;;;;;;1.20;1.00;;;;;;;6.46;88.71;98797.62;225896;1278;22613;-79
2024/02/04 03:03:50;;;;;;;1.10;0.90;;;;;;;6.40;88.15;98774.64;225984;1276;22527;-78
2024/02/04 03:08:52;;;;;;;0.80;0.80;;;;;;;6.36;88.45;98763.01;225895;1276;22556;-79
2024/02/04 03:13:54;;;;;;;0.90;0.80;;;;;;;6.32;88.41;98765.39;225841;1276;22562;-79
2024/02/04 03:18:56;;;;;;;2.90;1.20;;;;;;;6.29;88.27;98765.60;225928;1276;22537;-80
2024/02/04 03:23:58;;;;;;;1.70;1.20;;;;;;;6.27;88.23;98773.23;225963;1278;22539;-79
2024/02/04 03:29:00;;;;;;;1.50;1.00;;;;;;;6.24;88.41;98770.54;225956;1278;22664;-79
2024/02/04 03:34:02;;;;;;;0.90;0.90;;;;;;;6.21;88.64;98750.06;226000;1270;22551;-79
2024/02/04 03:39:04;;;;;;;2.70;1.60;;;;;;;6.18;88.45;98755.48;225880;1272;23273;-79
2024/02/04 03:44:07;;;;;;;1.50;1.40;;;;;;;6.16;88.67;98751.48;225809;1276;22544;-79
2024/02/04 03:49:09;;;;;;;1.50;1.20;;;;;;;6.14;88.31;98750.69;225984;1276;26063;-80
2024/02/04 03:54:11;;;;;;;3.90;2.10;;;;;;;6.12;89.07;98750.86;225790;1278;22551;-80
2024/02/04 03:59:13;;;;;;;2.20;2.00;;;;;;;6.11;88.94;98744.28;225874;1278;22676;-80
2024/02/04 04:04:16;;;;;;;2.40;2.20;;;;;;;6.13;89.21;98739.92;225878;1278;22545;-80
2024/02/04 04:09:18;;;;;;;2.60;2.40;;;;;;;6.17;89.12;98746.52;225901;1278;22547;-81
2024/02/04 04:14:20;;;;;;;4.20;2.70;;;;;;;6.21;89.59;98747.14;226004;1276;22649;-80
2024/02/04 04:19:22;;;;;;;3.90;3.00;;;;;;;6.26;89.77;98746.40;225919;1278;22909;-80
2024/02/04 04:24:24;;;;;;;5.70;4.00;;;;;;;6.29;89.72;98747.66;225835;1278;22573;-80
2024/02/04 04:29:26;;;;;;;7.40;4.50;;;;;;;6.29;89.91;98756.39;225900;1273;22553;-81
2024/02/04 04:34:28;;;;;;;5.50;4.80;;;;;;;6.30;89.77;98764.70;225934;1270;22559;-80
2024/02/04 04:39:30;;;;;;;5.90;4.10;;;;;;;6.31;90.16;98765.29;225962;1275;22503;-81
2024/02/04 04:44:33;;;;;;;3.80;3.50;;;;;;;6.34;90.46;98765.49;225842;1276;22685;-81
2024/02/04 04:49:35;;;;;;;3.50;3.20;;;;;;;6.36;90.32;98765.11;225938;1275;22559;-81
2024/02/04 04:54:37;;;;;;;3.50;3.30;;;;;;;6.36;90.21;98765.27;225981;1272;24629;-79
2024/02/04 04:59:39;;;;;;;3.40;3.10;;;;;;;6.39;90.54;98774.05;225970;1276;24253;-79
2024/02/04 05:04:45;;;;;;;3.30;3.10;;;;;;;6.41;90.59;98777.71;225990;1278;22592;-80
2024/02/04 05:09:47;;;;;;;3.20;3.00;;;;;;;6.42;90.92;98779.04;225958;1270;22536;-80
2024/02/04 05:14:49;;;;;;;3.10;2.80;;;;;;;6.41;90.65;98793.63;225885;1276;22594;-80
2024/02/04 05:19:51;;;;;;;2.90;2.70;;;;;;;6.40;90.49;98799.64;225942;1278;22566;-79
2024/02/04 05:24:53;;;;;;;2.30;2.10;;;;;;;6.38;90.46;98790.58;226495;1278;22547;-80
2024/02/04 05:29:55;;;;;;;1.90;1.80;;;;;;;6.34;90.01;98789.11;225893;1276;22902;-80
2024/02/04 05:34:58;;;;;;;1.70;1.50;;;;;;;6.24;90.05;98790.02;225754;1277;22585;-80
2024/02/04 05:40:00;;;;;;;1.30;1.20;;;;;;;6.13;89.62;98801.46;225723;1278;24288;-80
2024/02/04 05:45:05;;;;;;;1.20;1.10;;;;;;;6.06;89.82;98802.17;225900;1276;24406;-81
2024/02/04 05:50:08;;;;;;;1.40;1.10;;;;;;;5.98;89.29;98802.46;225920;1272;22551;-81
2024/02/04 05:55:10;;;;;;;2.10;1.20;;;;;;;5.92;88.51;98801.49;225945;1278;22584;-82
2024/02/04 06:00:14;;;;;;;2.90;1.10;;;;;;;5.84;88.08;98793.98;225954;1272;25246;-81
2024/02/04 06:05:16;;;;;;;3.30;0.90;;;;;;;5.77;87.56;98777.79;225855;1272;22551;-81
2024/02/04 06:10:18;;;;;;;0.70;0.60;;;;;;;5.71;86.92;98778.14;225943;1275;22580;-80
2024/02/04 06:15:21;;;;;;;0.90;0.80;;;;;;;5.68;86.33;98780.02;225826;1278;22552;-80
2024/02/04 06:20:23;;;;;;;0.90;0.80;;;;;;;5.65;86.04;98787.96;225959;1278;25415;-80
2024/02/04 06:25:25;;;;;;;2.00;0.80;;;;;;;5.64;85.77;98784.61;225953;1278;22560;-81
2024/02/04 06:30:27;;;;;;;1.30;0.80;;;;;;;5.65;85.41;98777.18;225822;1278;22670;-81
2024/02/04 06:35:29;;;;;;;3.90;1.10;;;;;;;5.72;85.42;98780.21;225981;1270;22551;-80
2024/02/04 06:40:31;;;;;;;3.60;1.20;;;;;;;5.78;84.64;98773.45;225995;1275;22554;-81
2024/02/04 06:45:33;;;;;;;2.00;0.90;;;;;;;5.84;84.34;98776.52;225900;1276;22543;-81
2024/02/04 06:50:36;;;;;;;4.40;1.10;;;;;;;5.89;83.58;98776.73;225784;1278;22543;-81
2024/02/04 06:55:38;;;;;;;4.30;1.70;;;;;;;5.93;83.77;98779.97;225960;1275;22546;-80
2024/02/04 07:00:40;;;;;;;5.50;1.50;;;;;;;5.96;83.72;98787.83;225986;1275;22622;-80
2024/02/04 07:05:46;;;;;;;3.20;0.80;;;;;;;6.01;83.12;98784.52;226025;1271;22533;-80
2024/02/04 07:10:49;;;;;;;2.70;0.90;;;;;;;6.03;82.76;98810.55;226030;1276;22532;-80
2024/02/04 07:15:51;;;;;;;1.80;0.90;;;;;;;6.04;82.94;98816.95;225960;1272;22572;-80
2024/02/04 07:20:53;;;;;;;4.40;1.50;;;;;;;6.03;82.90;98821.80;225886;1275;23032;-81
2024/02/04 07:25:55;;;;;;;5.30;2.00;;;;;;;6.01;83.07;98815.27;225726;1277;22599;-81
2024/02/04 07:30:58;;;;;;;5.10;2.10;;;;;;;6.01;83.19;98820.18;225780;1276;22539;-80
2024/02/04 07:36:00;;;;;;;4.60;1.60;;;;;;;6.03;83.27;98825.08;225699;1278;22557;-81
2024/02/04 07:41:02;;;;;;;5.70;2.40;;;;;;;5.96;83.44;98828.90;226031;1276;25410;-81
2024/02/04 07:46:04;;;;;;;3.50;1.60;;;;;;;5.81;84.27;98831.27;225949;1278;22732;-80
2024/02/04 07:51:08;;;;;;;3.60;2.00;;;;;;;5.68;84.89;98825.46;225931;1276;22640;-81
2024/02/04 07:56:10;;;;;;;6.70;2.10;;;;;;;5.63;85.15;98825.24;225788;1278;22652;-80
2024/02/04 08:01:12;;;;;;;3.70;2.10;;;;;;;5.62;85.44;98822.63;225975;1275;24989;-81
2024/02/04 08:06:14;;;;;;;9.30;2.70;;;;;;;5.65;86.00;98832.04;225826;1276;22575;-82
2024/02/04 08:11:17;;;;;;;7.30;3.10;;;;;;;5.73;85.80;98835.09;225859;1273;22558;-81
2024/02/04 08:16:20;;;;;;;3.70;2.20;;;;;;;5.80;86.22;98835.78;226361;1269;24157;-80
2024/02/04 08:21:22;;;;;;;3.30;2.10;;;;;;;5.88;86.35;98826.77;225789;1269;22575;-81
2024/02/04 08:26:24;;;;;;;3.20;1.70;;;;;;;6.01;86.11;98821.59;225987;1277;22547;-81
2024/02/04 08:31:26;;;;;;;4.90;2.10;;;;;;;6.18;86.22;98826.14;226090;1273;22555;-81
2024/02/04 08:36:31;;;;;;;4.10;2.00;;;;;;;6.40;86.37;98829.20;226042;1275;22575;-81
2024/02/04 08:41:33;;;;;;;3.00;1.80;;;;;;;6.51;86.23;98824.41;226020;1263;22543;-80
2024/02/04 08:46:35;;;;;;;6.50;2.60;;;;;;;6.54;85.99;98828.43;225805;1275;227153;-80
2024/02/04 08:51:37;;;;;;;5.10;2.20;;;;;;;6.63;86.53;98830.59;226081;1274;22574;-80
2024/02/04 08:56:39;;;;;;;5.80;2.70;;;;;;;6.80;86.49;98815.91;225970;1276;22537;-80
2024/02/04 09:01:41;;;;;;;6.00;3.60;;;;;;;7.08;86.26;98824.95;226016;1277;23299;-80
2024/02/04 09:06:43;;;;;;;8.70;4.80;;;;;;;7.18;86.01;98814.63;226025;1277;22548;-80
2024/02/04 09:11:45;;;;;;;7.20;4.40;;;;;;;7.23;86.10;98814.89;225883;1277;22577;-80
2024/02/04 09:16:47;;;;;;;5.10;2.90;;;;;;;7.32;85.99;98820.55;226019;1277;22896;-80
2024/02/04 09:21:49;;;;;;;6.30;3.30;;;;;;;7.38;85.80;98817.64;225939;1277;22564;-82
2024/02/04 09:26:51;;;;;;;4.10;3.00;;;;;;;7.44;85.66;98806.83;226005;1272;23335;-81
2024/02/04 09:31:53;;;;;;;4.10;2.70;;;;;;;7.54;85.24;98805.81;225984;1275;22570;-81
2024/02/04 09:36:56;;;;;;;5.10;2.70;;;;;;;7.56;85.43;98806.08;226055;1273;22547;-81
2024/02/04 09:41:59;;;;;;;4.50;2.40;;;;;;;7.52;85.21;98812.84;225944;1277;22577;-81
2024/02/04 09:47:02;;;;;;;3.80;2.60;;;;;;;7.50;85.32;98811.66;226051;1277;22530;-80
2024/02/04 09:52:08;;;;;;;5.50;2.90;;;;;;;7.52;85.15;98815.86;226015;1275;22686;-81
2024/02/04 09:57:11;;;;;;;4.70;3.70;;;;;;;7.54;85.36;98810.67;226262;1277;22556;-80
2024/02/04 10:02:13;;;;;;;5.40;4.00;;;;;;;7.65;85.79;98792.30;225942;1277;22544;-80
2024/02/04 10:07:20;;;;;;;5.30;4.20;;;;;;;7.70;84.98;98790.13;225937;1276;22583;-80
2024/02/04 10:12:23;;;;;;;4.40;4.00;;;;;;;7.76;84.92;98792.23;226021;1272;22575;-81
2024/02/04 10:17:25;;;;;;;7.30;4.10;;;;;;;7.76;84.00;98788.94;226120;1277;22558;-80
2024/02/04 10:22:28;;;;;;;6.30;3.80;;;;;;;7.69;83.62;98778.77;225999;1272;22555;-80
2024/02/04 10:27:31;;;;;;;5.30;3.90;;;;;;;7.63;83.76;98773.38;225966;1275;22578;-79
2024/02/04 10:32:38;;;;;;;4.80;4.10;;;;;;;7.73;83.97;98762.95;226018;1267;22553;-80
2024/02/04 10:37:40;;;;;;;4.30;3.70;;;;;;;7.94;84.10;98755.01;226033;1273;22657;-80
2024/02/04 10:42:44;;;;;;;4.90;3.80;;;;;;;8.15;84.18;98743.98;226015;1276;22550;-81
2024/02/04 10:47:55;;;;;;;6.50;4.00;;;;;;;8.41;84.05;98730.55;225965;1275;22552;-80
2024/02/04 10:53:07;;;;;;;3.90;3.50;;;;;;;8.58;83.70;98714.23;226012;1277;22690;-80
2024/02/04 10:58:12;;;;;;;6.10;3.90;;;;;;;8.62;83.31;98706.23;226094;1274;22551;-80
2024/02/04 11:03:15;;;;;;;5.20;4.30;;;;;;;8.77;83.35;98681.45;226015;1275;22536;-80
2024/02/04 11:08:17;;;;;;;5.70;4.30;;;;;;;9.02;83.55;98673.23;226005;1267;22557;-82
2024/02/04 11:13:22;;;;;;;5.20;4.30;;;;;;;9.21;83.03;98659.88;226087;1277;22553;-80
2024/02/04 11:18:57;;;;;;;6.70;4.70;;;;;;;9.29;82.80;98649.80;225991;1277;22569;-81
2024/02/04 11:24:17;;;;;;;6.10;4.60;;;;;;;9.28;82.92;98638.60;225786;1277;25274;-80
2024/02/04 11:29:19;;;;;;;6.30;5.30;;;;;;;9.23;82.31;98627.05;225991;1275;22777;-80
2024/02/04 11:34:23;;;;;;;5.50;4.80;;;;;;;9.24;82.72;98618.45;226012;1272;25401;-80
2024/02/04 11:39:26;;;;;;;6.50;5.40;;;;;;;9.17;82.20;98610.27;226018;1269;22652;-80
2024/02/04 11:44:28;;;;;;;6.20;4.40;;;;;;;9.08;82.59;98615.02;225944;1275;22547;-80
2024/02/04 11:49:30;;;;;;;6.90;4.90;;;;;;;8.94;82.60;98620.21;226059;1275;22544;-80
2024/02/04 11:54:32;;;;;;;5.70;4.40;;;;;;;8.80;82.46;98601.29;226085;1277;22524;-82
2024/02/04 11:59:36;;;;;;;5.60;5.00;;;;;;;8.69;82.65;98596.35;226004;1275;25977;-81
2024/02/04 12:04:39;;;;;;;7.90;5.50;;;;;;;8.53;83.10;98588.25;226007;1275;22567;-80
2024/02/04 12:09:42;;;;;;;7.30;5.40;;;;;;;8.46;83.32;98578.23;225975;1276;22555;-81
2024/02/04 12:14:46;;;;;;;9.00;5.60;;;;;;;8.37;83.87;98580.27;226096;1275;22576;-81
2024/02/04 12:19:50;;;;;;;7.50;6.30;;;;;;;8.26;84.46;98592.55;225967;1275;22802;-80
2024/02/04 12:24:52;;;;;;;9.50;7.60;;;;;;;8.26;84.70;98590.51;225922;1277;22551;-80
2024/02/04 12:29:55;;;;;;;9.30;7.10;;;;;;;8.26;84.85;98593.14;226121;1275;22577;-82
2024/02/04 12:34:58;;;;;;;10.90;7.90;;;;;;;8.23;85.54;98577.54;226034;1275;22784;-82
2024/02/04 12:40:02;;;;;;;9.30;6.40;;;;;;;8.19;85.67;98564.40;225932;1277;23660;-82
2024/02/04 12:45:05;;;;;;;9.60;7.60;;;;;;;8.15;85.59;98560.38;225884;1277;25350;-82
2024/02/04 12:50:12;;;;;;;10.60;8.10;;;;;;;8.09;85.71;98556.08;225937;1272;22566;-81
2024/02/04 12:55:23;;;;;;;11.30;8.30;;;;;;;8.01;86.18;98551.40;226033;1277;22527;-80
2024/02/04 13:00:25;;;;;;;11.00;8.40;;;;;;;7.87;86.12;98567.23;226077;1277;22553;-81
2024/02/04 13:05:30;;;;;;;11.80;8.70;;;;;;;7.74;86.13;98557.25;226098;1269;22551;-82
2024/02/04 13:10:34;;;;;;;10.80;8.90;;;;;;;7.71;86.73;98508.33;225878;1276;22579;-81
2024/02/04 13:15:39;;;;;;;11.80;9.60;;;;;;;7.72;86.82;98521.31;225972;1275;22585;-82
2024/02/04 13:20:43;;;;;;;13.90;9.40;;;;;;;7.67;86.99;98540.79;225657;1277;22555;-81
2024/02/04 13:25:47;;;;;;;8.50;6.80;;;;;;;7.64;87.14;98553.50;225962;1277;22640;-81
2024/02/04 13:30:49;;;;;;;7.30;5.40;;;;;;;7.59;86.93;98546.35;225757;1277;22576;-80
2024/02/04 13:35:51;;;;;;;5.60;4.10;;;;;;;7.58;87.35;98532.73;225971;1277;22557;-82
2024/02/04 13:40:53;;;;;;;6.70;4.90;;;;;;;7.57;87.41;98530.56;225966;1276;22945;-82
2024/02/04 13:45:56;;;;;;;5.50;4.30;;;;;;;7.55;87.66;98517.85;226000;1275;25931;-81
2024/02/04 13:50:58;;;;;;;7.60;4.60;;;;;;;7.56;87.58;98501.24;225953;1277;22561;-81
2024/02/04 13:56:00;;;;;;;6.30;4.60;;;;;;;7.53;87.86;98498.77;225887;1277;22553;-81
2024/02/04 14:01:03;;;;;;;5.00;3.30;;;;;;;7.49;88.06;98489.45;226055;1277;22564;-81
2024/02/04 14:06:05;;;;;;;5.30;3.80;;;;;;;7.43;88.08;98479.84;226097;1277;25291;-81
2024/02/04 14:11:10;;;;;;;4.10;2.90;;;;;;;7.41;88.25;98469.31;226055;1275;22690;-81
2024/02/04 14:16:12;;;;;;;5.20;3.40;;;;;;;7.43;88.72;98458.73;225974;1275;22550;-82
2024/02/04 14:21:14;;;;;;;6.10;3.90;;;;;;;7.47;88.30;98468.66;226074;1275;22551;-81
2024/02/04 14:26:20;;;;;;;6.30;4.30;;;;;;;7.49;88.23;98463.69;226050;1277;22551;-80
2024/02/04 14:31:22;;;;;;;5.40;4.50;;;;;;;7.51;88.58;98467.33;226022;1277;22547;-81
2024/02/04 14:36:25;;;;;;;4.80;3.60;;;;;;;7.51;89.10;98460.34;225923;1277;22594;-81
2024/02/04 14:41:27;;;;;;;5.00;3.40;;;;;;;7.49;88.63;98452.63;225983;1276;22608;-81
2024/02/04 14:46:29;;;;;;;3.50;2.70;;;;;;;7.49;88.50;98444.73;226103;1277;22554;-80
2024/02/04 14:51:31;;;;;;;3.50;2.70;;;;;;;7.48;88.51;98433.91;225999;1277;22705;-81
2024/02/04 14:56:37;;;;;;;2.80;2.40;;;;;;;7.46;88.79;98436.94;225979;1275;22558;-81
2024/02/04 15:01:48;;;;;;;3.00;2.10;;;;;;;7.41;88.87;98436.55;226013;1277;22540;-81
2024/02/04 15:06:50;;;;;;;2.80;2.30;;;;;;;7.37;89.03;98435.31;225752;1277;22982;-81
2024/02/04 15:11:52;;;;;;;2.40;1.80;;;;;;;7.32;89.04;98426.40;226050;1274;23287;-80
2024/02/04 15:16:55;;;;;;;2.00;1.80;;;;;;;7.30;89.57;98421.71;226031;1277;22555;-81
2024/02/04 15:21:58;;;;;;;2.20;1.90;;;;;;;7.29;89.69;98418.52;226069;1275;22583;-80
2024/02/04 15:27:04;;;;;;;2.80;2.20;;;;;;;7.28;89.53;98413.42;226021;1275;22557;-81
2024/02/04 15:32:08;;;;;;;3.60;2.90;;;;;;;7.24;89.81;98422.27;225955;1276;22543;-81
2024/02/04 15:37:10;;;;;;;3.70;3.00;;;;;;;7.19;90.17;98420.00;226169;1275;22720;-80
2024/02/04 15:42:12;;;;;;;2.20;2.00;;;;;;;7.15;90.06;98404.43;225957;1277;22541;-80
2024/02/04 15:47:15;;;;;;;2.10;1.60;;;;;;;7.10;90.06;98404.77;225931;1277;22619;-81
2024/02/04 15:52:18;;;;;;;1.90;1.80;;;;;;;7.07;90.37;98393.89;225952;1275;22649;-81
2024/02/04 15:57:22;;;;;;;2.00;1.60;;;;;;;7.06;90.45;98379.15;226099;1276;24291;-81
2024/02/04 16:02:24;;;;;;;5.00;3.70;;;;;;;7.04;90.03;98361.54;226012;1275;22545;-81
2024/02/04 16:07:27;;;;;;;6.10;5.10;;;;;;;7.01;90.39;98344.17;225941;1277;22527;-82
2024/02/04 16:12:30;;;;;;;6.50;5.90;;;;;;;6.99;90.67;98342.77;226016;1277;22550;-80
2024/02/04 16:17:35;;;;;;;8.20;7.10;;;;;;;7.00;90.81;98351.56;226030;1275;22553;-80
2024/02/04 16:22:37;;;;;;;10.30;8.50;;;;;;;7.02;91.16;98369.82;226025;1273;24752;-80
2024/02/04 16:27:39;;;;;;;7.50;6.10;;;;;;;7.04;91.10;98386.39;226116;1277;22529;-81
2024/02/04 16:32:41;;;;;;;6.50;5.00;;;;;;;7.08;90.94;98389.95;226029;1275;23138;-81
2024/02/04 16:37:47;;;;;;;6.50;5.10;;;;;;;7.15;91.16;98397.73;226011;1267;26010;-80
2024/02/04 16:42:49;;;;;;;7.30;6.30;;;;;;;7.21;91.14;98394.08;226022;1277;22553;-81
2024/02/04 16:47:51;;;;;;;7.20;6.20;;;;;;;7.24;91.15;98373.70;226042;1276;23035;-81
2024/02/04 16:52:53;;;;;;;7.30;5.40;;;;;;;7.28;91.46;98374.35;226042;1277;22546;-81
2024/02/04 16:57:56;;;;;;;7.10;5.40;;;;;;;7.31;91.19;98387.79;226025;1276;22557;-80
2024/02/04 17:02:58;;;;;;;9.90;7.30;;;;;;;7.33;91.06;98400.15;226084;1276;22550;-82
2024/02/04 17:08:01;;;;;;;9.40;7.90;;;;;;;7.32;91.25;98393.85;225977;1276;22543;-80
2024/02/04 17:13:03;;;;;;;6.80;6.10;;;;;;;7.28;91.51;98385.14;225968;1277;22564;-80
2024/02/04 17:18:09;;;;;;;6.60;5.70;;;;;;;7.27;91.71;98394.44;225993;1275;22764;-79
2024/02/04 17:23:13;;;;;;;6.70;5.70;;;;;;;7.29;91.74;98394.89;225861;1277;25348;-80
2024/02/04 17:28:15;;;;;;;7.60;5.40;;;;;;;7.30;91.44;98392.33;226146;1277;22896;-80
2024/02/04 17:33:17;;;;;;;6.60;4.40;;;;;;;7.26;91.23;98379.85;226054;1276;22544;-80
2024/02/04 17:38:20;;;;;;;4.20;3.80;;;;;;;7.20;91.39;98382.63;225948;1276;22572;-81
2024/02/04 17:43:22;;;;;;;5.70;4.20;;;;;;;7.15;90.93;98384.29;226039;1275;22561;-81
2024/02/04 17:48:24;;;;;;;5.00;3.80;;;;;;;7.11;91.47;98382.14;226010;1276;23073;-80
2024/02/04 17:53:27;;;;;;;5.40;4.00;;;;;;;7.08;91.51;98382.76;226027;1276;22555;-81
2024/02/04 17:58:29;;;;;;;6.10;4.80;;;;;;;7.06;91.35;98387.29;225997;1276;22629;-81
2024/02/04 18:03:31;;;;;;;5.70;4.50;;;;;;;7.07;91.30;98389.13;225872;1269;22543;-80
2024/02/04 18:08:38;;;;;;;5.00;4.00;;;;;;;7.11;91.58;98390.52;226035;1278;22547;-80
2024/02/04 18:13:40;;;;;;;5.50;3.50;;;;;;;7.11;91.41;98394.20;225998;1266;22936;-82
2024/02/04 18:18:43;;;;;;;5.20;3.80;;;;;;;7.09;91.20;98391.41;226003;1276;22560;-80
2024/02/04 18:23:46;;;;;;;6.70;4.30;;;;;;;7.07;91.63;98395.70;226163;1255;25157;-81
2024/02/04 18:28:48;;;;;;;4.70;4.30;;;;;;;7.05;91.13;98386.94;226043;1277;22550;-82
2024/02/04 18:33:52;;;;;;;5.30;4.40;;;;;;;7.02;91.17;98386.79;225963;1276;22581;-81
2024/02/04 18:38:57;;;;;;;4.60;3.90;;;;;;;6.98;91.26;98383.58;225962;1272;23221;-80
2024/02/04 18:44:00;;;;;;;6.10;4.00;;;;;;;6.93;91.11;98385.05;225927;1276;24261;-81
2024/02/04 18:49:02;;;;;;;5.70;4.60;;;;;;;6.88;91.02;98386.16;226046;1277;22538;-79
2024/02/04 18:54:04;;;;;;;5.20;4.40;;;;;;;6.83;90.93;98389.15;225947;1277;22604;-81
2024/02/04 18:59:06;;;;;;;5.70;4.30;;;;;;;6.77;90.94;98393.30;226053;1277;22570;-81
2024/02/04 19:04:10;;;;;;;6.00;5.00;;;;;;;6.73;90.85;98386.39;226067;1275;22583;-82
2024/02/04 19:09:13;;;;;;;6.70;5.30;;;;;;;6.71;90.95;98384.65;226058;1274;22556;-83
2024/02/04 19:14:19;;;;;;;7.30;5.10;;;;;;;6.71;90.71;98387.64;226078;1270;22662;-81
2024/02/04 19:19:22;;;;;;;7.80;5.40;;;;;;;6.71;90.79;98390.27;226061;1277;22563;-80
2024/02/04 19:24:24;;;;;;;6.70;5.30;;;;;;;6.71;90.69;98403.23;226053;1278;22937;-81
2024/02/04 19:29:26;;;;;;;6.70;4.90;;;;;;;6.72;90.54;98406.52;226114;1276;22554;-81
2024/02/04 19:34:28;;;;;;;5.60;4.40;;;;;;;6.71;90.40;98401.98;226021;1273;24314;-81
2024/02/04 19:39:31;;;;;;;8.50;4.70;;;;;;;6.72;89.88;98398.80;226047;1273;22630;-82
2024/02/04 19:44:34;;;;;;;5.00;4.20;;;;;;;6.71;90.36;98387.48;225927;1277;22551;-82
2024/02/04 19:49:42;;;;;;;6.50;4.50;;;;;;;6.70;89.82;98392.86;226108;1273;22553;-81
2024/02/04 19:54:45;;;;;;;5.80;4.20;;;;;;;6.68;89.81;98393.04;225989;1276;24957;-82
2024/02/04 19:59:47;;;;;;;8.90;5.00;;;;;;;6.66;89.48;98398.06;226037;1277;22557;-82
2024/02/04 20:04:49;;;;;;;6.80;5.00;;;;;;;6.65;89.53;98396.23;226112;1273;23780;-82
2024/02/04 20:09:51;;;;;;;5.70;4.50;;;;;;;6.66;89.36;98392.98;226048;1270;22565;-81
2024/02/04 20:14:53;;;;;;;6.40;4.10;;;;;;;6.68;89.54;98399.20;226032;1277;25335;-82
2024/02/04 20:19:59;;;;;;;6.00;4.30;;;;;;;6.69;89.18;98397.33;226032;1277;22992;-80
2024/02/04 20:25:03;;;;;;;6.50;3.90;;;;;;;6.68;89.12;98399.94;226138;1274;22584;-81
2024/02/04 20:30:11;;;;;;;5.40;2.80;;;;;;;6.67;88.67;98391.09;226024;1277;25514;-81
2024/02/04 20:35:15;;;;;;;2.40;1.80;;;;;;;6.68;87.38;98391.65;226068;1277;22563;-79
2024/02/04 20:40:18;;;;;;;5.00;2.60;;;;;;;6.66;86.99;98390.64;226086;1276;25017;-81
2024/02/04 20:45:21;;;;;;;3.60;2.40;;;;;;;6.62;86.87;98390.76;225673;1277;175184;-81
2024/02/04 20:50:23;;;;;;;4.10;2.40;;;;;;;6.55;86.91;98377.30;226112;1273;22566;-82
2024/02/04 20:55:26;;;;;;;4.20;2.60;;;;;;;6.45;86.77;98370.56;225754;1277;23213;-81
2024/02/04 21:00:28;;;;;;;3.20;1.90;;;;;;;6.35;87.48;98364.09;225910;1274;22527;-82
2024/02/04 21:05:33;;;;;;;1.40;1.00;;;;;;;6.26;87.14;98366.72;226076;1273;25792;-81
2024/02/04 21:10:38;;;;;;;1.40;1.00;;;;;;;6.19;86.91;98371.05;226078;1273;22562;-80
2024/02/04 21:15:40;;;;;;;1.10;0.60;;;;;;;6.11;86.34;98374.32;226103;1273;22552;-82
2024/02/04 21:20:43;;;;;;;0.40;0.30;;;;;;;6.00;86.65;98388.25;225944;1277;22582;-81
2024/02/04 21:25:44;;;;;;;0.30;0.30;;;;;;;5.88;87.01;98374.23;226008;1276;25361;-80
2024/02/04 21:30:46;;;;;;;1.00;0.50;;;;;;;5.77;86.84;98365.33;226069;1277;22932;-81
2024/02/04 21:35:48;;;;;;;1.60;0.40;;;;;;;5.68;87.13;98377.94;225848;1273;25347;-81
2024/02/04 21:40:50;;;;;;;0.50;0.40;;;;;;;5.61;87.42;98381.34;226026;1276;23142;-81
2024/02/04 21:45:52;;;;;;;0.70;0.60;;;;;;;5.54;87.40;98385.83;225886;1277;24231;-81
2024/02/04 21:50:54;;;;;;;0.40;0.40;;;;;;;5.45;87.32;98381.75;226055;1276;22545;-82
2024/02/04 21:55:56;;;;;;;1.60;0.50;;;;;;;5.38;87.16;98383.02;225934;1276;22547;-82
2024/02/04 22:00:59;;;;;;;1.30;0.40;;;;;;;5.28;87.63;98375.15;225987;1273;22543;-83
2024/02/04 22:06:04;;;;;;;1.40;0.40;;;;;;;5.19;87.74;98380.48;226015;1277;22558;-82
2024/02/04 22:11:06;;;;;;;1.60;0.60;;;;;;;5.12;87.98;98368.40;226056;1270;22544;-82
2024/02/04 22:16:08;;;;;;;2.10;0.90;;;;;;;5.05;88.15;98385.06;225965;1276;22546;-82
2024/02/04 22:21:18;;;;;;;1.20;0.70;;;;;;;4.98;88.51;98381.95;226075;1276;22624;-82
2024/02/04 22:26:21;;;;;;;0.80;0.50;;;;;;;4.93;88.40;98370.16;226180;1277;25248;-83
2024/02/04 22:31:23;;;;;;;0.80;0.80;;;;;;;4.93;88.84;98376.50;226097;1270;22558;-84
2024/02/04 22:36:27;;;;;;;2.00;0.90;;;;;;;4.91;89.11;98380.22;225970;1276;22609;-83
2024/02/04 22:41:30;;;;;;;0.80;0.60;;;;;;;4.92;89.57;98385.17;226069;1275;23301;-82
2024/02/04 22:46:36;;;;;;;2.10;0.70;;;;;;;4.91;89.48;98376.53;226062;1273;22609;-82
2024/02/04 22:51:39;;;;;;;1.60;1.00;;;;;;;4.90;89.54;98370.98;226109;1273;22551;-81
2024/02/04 22:56:41;;;;;;;1.80;0.90;;;;;;;4.90;89.62;98371.23;226104;1273;22588;-83
2024/02/04 23:01:43;;;;;;;1.30;0.70;;;;;;;4.89;89.57;98377.27;225980;1277;22529;-83
2024/02/04 23:06:46;;;;;;;0.80;0.80;;;;;;;4.89;89.82;98374.73;226103;1269;22538;-83
2024/02/04 23:11:49;;;;;;;1.80;1.30;;;;;;;4.89;90.27;98370.46;226096;1275;22602;-82
2024/02/04 23:16:51;;;;;;;3.10;1.60;;;;;;;4.90;90.67;98360.27;226071;1269;22561;-83
2024/02/04 23:21:53;;;;;;;2.50;1.10;;;;;;;4.93;90.56;98358.90;225917;1273;22565;-82
2024/02/04 23:26:55;;;;;;;1.80;1.60;;;;;;;4.97;90.95;98356.02;225800;1277;22543;-81
2024/02/04 23:31:57;;;;;;;2.20;1.60;;;;;;;5.00;90.81;98346.42;226031;1277;22567;-82
2024/02/04 23:36:59;;;;;;;2.30;1.50;;;;;;;5.02;91.14;98350.77;226050;1277;22565;-81
2024/02/04 23:42:01;;;;;;;1.50;1.40;;;;;;;5.03;90.78;98335.46;226087;1272;22583;-82
2024/02/04 23:47:04;;;;;;;1.80;1.40;;;;;;;5.05;90.98;98341.52;226090;1271;23131;-83